createdAt,value
2023-02-02T00:01:08.989Z,96270.38
2023-02-02T00:03:35.551Z,96265.81
2023-02-02T00:06:02.500Z,96262.34
2023-02-02T00:08:29.020Z,96254.66
2023-02-02T00:10:55.628Z,96265.56
2023-02-02T00:13:22.266Z,96251.59
2023-02-02T00:15:49.371Z,96260.41
2023-02-02T00:18:15.944Z,96254.22
2023-02-02T00:20:42.470Z,96260.25
2023-02-02T00:23:12.202Z,96244.13
2023-02-02T00:25:39.093Z,96245.41
2023-02-02T00:28:05.655Z,96240.44
2023-02-02T00:30:32.275Z,96251.41
2023-02-02T00:32:58.794Z,96257.03
2023-02-02T00:35:26.106Z,96255.41
2023-02-02T00:37:52.703Z,96264.59
2023-02-02T00:40:19.814Z,96257.84
2023-02-02T00:42:46.333Z,96252.06
2023-02-02T00:45:14.187Z,96256.31
2023-02-02T00:47:41.239Z,96251.88
2023-02-02T00:50:08.988Z,96246.88
2023-02-02T00:52:35.526Z,96237.44
2023-02-02T00:55:02.124Z,96235.13
2023-02-02T00:57:28.655Z,96240.19
2023-02-02T00:59:55.263Z,96232.78
2023-02-02T01:02:22.433Z,96231.16
2023-02-02T01:04:49.181Z,96221.44
2023-02-02T01:07:15.960Z,96221.56
2023-02-02T01:09:42.507Z,96222.56
2023-02-02T01:12:09.082Z,96228.34
2023-02-02T01:14:35.673Z,96232.78
2023-02-02T01:17:02.227Z,96242.00
2023-02-02T01:19:28.706Z,96240.38
2023-02-02T01:21:55.171Z,96243.75
2023-02-02T01:24:21.644Z,96244.81
2023-02-02T01:26:48.215Z,96245.19
2023-02-02T01:29:15.450Z,96249.16
2023-02-02T01:31:42.538Z,96251.03
2023-02-02T01:34:09.070Z,96249.81
2023-02-02T01:36:35.590Z,96241.94
2023-02-02T01:39:04.428Z,96247.00
2023-02-02T01:41:31.415Z,96235.03
2023-02-02T01:44:03.699Z,96240.63
2023-02-02T01:46:35.420Z,96245.91
2023-02-02T01:49:11.665Z,96252.00
2023-02-02T01:51:49.920Z,96241.41
2023-02-02T01:54:21.053Z,96250.91
2023-02-02T01:56:53.345Z,96245.06
2023-02-02T01:59:20.009Z,96248.00
2023-02-02T02:01:48.183Z,96246.19
2023-02-02T02:04:15.675Z,96247.41
2023-02-02T02:06:42.821Z,96244.00
2023-02-02T02:09:09.604Z,96246.53
2023-02-02T02:11:36.596Z,96244.97
2023-02-02T02:14:05.851Z,96247.34
2023-02-02T02:16:44.673Z,96249.47
2023-02-02T02:19:35.347Z,96247.50
2023-02-02T02:22:12.117Z,96249.53
2023-02-02T02:24:51.319Z,96253.69
2023-02-02T02:27:55.554Z,96266.94
2023-02-02T02:30:34.181Z,96263.34
2023-02-02T02:33:13.288Z,96259.03
2023-02-02T02:35:55.692Z,96262.19
2023-02-02T02:38:40.452Z,96264.09
2023-02-02T02:41:21.167Z,96266.13
2023-02-02T02:44:00.746Z,96272.53
2023-02-02T02:46:30.056Z,96273.91
2023-02-02T02:48:58.524Z,96270.53
2023-02-02T02:51:50.524Z,96267.38
2023-02-02T02:54:41.664Z,96270.22
2023-02-02T02:57:40.547Z,96271.00
2023-02-02T03:00:28.714Z,96261.59
2023-02-02T03:03:16.138Z,96255.44
2023-02-02T03:06:05.018Z,96262.84
2023-02-02T03:08:45.085Z,96244.84
2023-02-02T03:11:13.494Z,96244.25
2023-02-02T03:13:41.360Z,96239.41
2023-02-02T03:16:09.085Z,96236.47
2023-02-02T03:18:35.650Z,96234.59
2023-02-02T03:21:02.280Z,96237.69
2023-02-02T03:23:30.846Z,96239.44
2023-02-02T03:25:57.810Z,96239.00
2023-02-02T03:28:24.573Z,96236.09
2023-02-02T03:30:52.026Z,96236.34
2023-02-02T03:33:19.273Z,96237.66
2023-02-02T03:35:46.021Z,96235.97
2023-02-02T03:38:13.081Z,96239.28
2023-02-02T03:40:40.044Z,96232.63
2023-02-02T03:43:06.551Z,96233.41
2023-02-02T03:45:33.297Z,96234.03
2023-02-02T03:47:59.753Z,96235.97
2023-02-02T03:50:26.502Z,96227.56
2023-02-02T03:52:54.221Z,96240.53
2023-02-02T03:55:21.021Z,96228.16
2023-02-02T03:57:50.069Z,96229.47
2023-02-02T04:00:16.715Z,96239.75
2023-02-02T04:02:43.731Z,96234.94
2023-02-02T04:05:10.509Z,96235.03
2023-02-02T04:07:37.248Z,96250.44
2023-02-02T04:10:05.037Z,96241.66
2023-02-02T04:12:31.576Z,96244.53
2023-02-02T04:14:58.108Z,96247.50
2023-02-02T04:17:25.024Z,96259.59
2023-02-02T04:19:51.772Z,96255.34
2023-02-02T04:22:18.426Z,96246.03
2023-02-02T04:24:46.680Z,96251.97
2023-02-02T04:27:13.309Z,96247.31
2023-02-02T04:29:39.919Z,96251.97
2023-02-02T04:32:07.224Z,96247.44
2023-02-02T04:34:33.946Z,96254.38
2023-02-02T04:37:00.553Z,96258.69
2023-02-02T04:39:27.444Z,96259.31
2023-02-02T04:41:54.076Z,96268.09
2023-02-02T04:44:20.692Z,96269.88
2023-02-02T04:46:47.547Z,96269.38
2023-02-02T04:49:14.085Z,96268.00
2023-02-02T04:51:41.260Z,96266.34
2023-02-02T04:54:08.705Z,96272.25
2023-02-02T04:56:35.679Z,96266.00
2023-02-02T04:59:02.663Z,96268.97
2023-02-02T05:01:29.291Z,96271.06
2023-02-02T05:03:56.107Z,96270.38
2023-02-02T05:06:22.633Z,96276.06
2023-02-02T05:08:49.297Z,96271.50
2023-02-02T05:11:21.469Z,96279.84
2023-02-02T05:13:52.564Z,96278.50
2023-02-02T05:16:19.545Z,96281.31
2023-02-02T05:18:52.834Z,96282.97
2023-02-02T05:21:20.214Z,96282.44
2023-02-02T05:23:47.375Z,96276.53
2023-02-02T05:26:25.631Z,96287.75
2023-02-02T05:28:52.914Z,96280.06
2023-02-02T05:31:20.023Z,96285.63
2023-02-02T05:33:46.709Z,96279.19
2023-02-02T05:36:13.233Z,96284.75
2023-02-02T05:38:39.750Z,96282.56
2023-02-02T05:41:06.244Z,96287.66
2023-02-02T05:43:33.327Z,96292.28
2023-02-02T05:46:00.358Z,96289.53
2023-02-02T05:48:27.011Z,96288.59
2023-02-02T05:51:06.604Z,96284.31
2023-02-02T05:53:33.589Z,96284.81
2023-02-02T05:56:00.601Z,96279.19
2023-02-02T05:58:27.231Z,96281.97
2023-02-02T06:00:56.488Z,96283.28
2023-02-02T06:03:24.031Z,96285.44
2023-02-02T06:05:50.927Z,96283.63
2023-02-02T06:08:17.574Z,96290.53
2023-02-02T06:10:44.598Z,96294.94
2023-02-02T06:13:11.570Z,96292.94
2023-02-02T06:15:38.251Z,96295.72
2023-02-02T06:18:05.225Z,96304.09
2023-02-02T06:20:31.898Z,96304.63
2023-02-02T06:22:58.761Z,96306.50
2023-02-02T06:25:25.818Z,96311.56
2023-02-02T06:27:57.153Z,96305.97
2023-02-02T06:30:23.661Z,96303.97
2023-02-02T06:32:50.241Z,96306.94
2023-02-02T06:35:17.018Z,96307.88
2023-02-02T06:37:43.548Z,96309.81
2023-02-02T06:40:11.179Z,96303.34
2023-02-02T06:42:37.831Z,96301.50
2023-02-02T06:45:05.038Z,96299.81
2023-02-02T06:47:34.772Z,96301.00
2023-02-02T06:50:01.233Z,96306.59
2023-02-02T06:52:28.232Z,96305.44
2023-02-02T06:54:54.760Z,96302.50
2023-02-02T06:57:21.253Z,96299.13
2023-02-02T06:59:48.268Z,96293.94
2023-02-02T07:02:14.824Z,96309.47
2023-02-02T07:04:41.297Z,96308.72
2023-02-02T07:07:07.770Z,96309.72
2023-02-02T07:09:34.733Z,96315.66
2023-02-02T07:12:01.329Z,96310.84
2023-02-02T07:14:28.414Z,96312.97
2023-02-02T07:16:55.221Z,96312.66
2023-02-02T07:19:21.681Z,96310.97
2023-02-02T07:21:48.156Z,96312.66
2023-02-02T07:24:17.148Z,96317.81
2023-02-02T07:26:43.762Z,96326.81
2023-02-02T07:29:12.713Z,96325.50
2023-02-02T07:31:39.789Z,96321.31
2023-02-02T07:34:06.631Z,96320.41
2023-02-02T07:36:36.877Z,96316.84
2023-02-02T07:39:04.403Z,96323.28
2023-02-02T07:41:31.553Z,96327.34
2023-02-02T07:43:58.056Z,96336.69
2023-02-02T07:46:25.509Z,96333.53
2023-02-02T07:48:55.432Z,96338.44
2023-02-02T07:51:22.166Z,96347.94
2023-02-02T07:53:50.468Z,96356.16
2023-02-02T07:56:19.363Z,96352.19
2023-02-02T07:58:46.316Z,96354.28
2023-02-02T08:01:14.768Z,96353.69
2023-02-02T08:03:41.862Z,96355.13
2023-02-02T08:06:32.005Z,96343.19
2023-02-02T08:08:59.423Z,96354.97
2023-02-02T08:11:27.717Z,96348.91
2023-02-02T08:13:59.567Z,96349.25
2023-02-02T08:16:27.114Z,96345.13
2023-02-02T08:18:54.528Z,96343.63
2023-02-02T08:21:24.036Z,96339.88
2023-02-02T08:23:52.067Z,96332.22
2023-02-02T08:26:27.152Z,96334.63
2023-02-02T08:28:55.669Z,96337.44
2023-02-02T08:31:24.922Z,96339.16
2023-02-02T08:33:57.951Z,96345.88
2023-02-02T08:36:25.758Z,96341.63
2023-02-02T08:38:52.381Z,96350.66
2023-02-02T08:41:20.954Z,96349.28
2023-02-02T08:43:47.654Z,96351.72
2023-02-02T08:46:16.262Z,96364.78
2023-02-02T08:48:43.168Z,96359.56
2023-02-02T08:51:14.623Z,96359.75
2023-02-02T08:53:42.125Z,96370.88
2023-02-02T08:56:14.137Z,96364.38
2023-02-02T08:58:44.755Z,96376.56
2023-02-02T09:01:28.453Z,96381.69
2023-02-02T09:03:59.129Z,96385.16
2023-02-02T09:06:32.949Z,96381.50
2023-02-02T09:09:00.019Z,96394.81
2023-02-02T09:11:26.739Z,96391.13
2023-02-02T09:13:55.998Z,96384.88
2023-02-02T09:16:23.064Z,96374.84
2023-02-02T09:18:49.610Z,96374.94
2023-02-02T09:21:17.388Z,96379.19
2023-02-02T09:23:44.685Z,96376.31
2023-02-02T09:26:12.516Z,96379.75
2023-02-02T09:28:40.527Z,96377.22
2023-02-02T09:31:08.236Z,96381.31
2023-02-02T09:33:34.906Z,96380.75
2023-02-02T09:36:25.917Z,96376.63
2023-02-02T09:38:52.689Z,96371.03
2023-02-02T09:41:38.749Z,96376.91
2023-02-02T09:44:32.125Z,96373.50
2023-02-02T09:47:06.388Z,96383.00
2023-02-02T09:49:48.087Z,96382.53
2023-02-02T09:52:27.399Z,96374.97
2023-02-02T09:54:59.597Z,96372.72
2023-02-02T09:57:30.690Z,96373.69
2023-02-02T09:59:57.642Z,96370.97
2023-02-02T10:02:34.195Z,96372.00
2023-02-02T10:05:08.343Z,96372.69
2023-02-02T10:07:39.787Z,96384.63
2023-02-02T10:10:19.356Z,96383.47
2023-02-02T10:13:03.812Z,96392.44
2023-02-02T10:15:40.104Z,96391.31
2023-02-02T10:18:16.740Z,96391.81
2023-02-02T10:20:47.290Z,96394.31
2023-02-02T10:23:44.952Z,96401.97
2023-02-02T10:26:28.121Z,96403.19
2023-02-02T10:29:16.931Z,96405.88
2023-02-02T10:31:49.926Z,96406.81
2023-02-02T10:34:36.357Z,96414.94
2023-02-02T10:37:13.994Z,96418.66
2023-02-02T10:39:46.410Z,96417.56
2023-02-02T10:42:27.923Z,96416.91
2023-02-02T10:44:59.953Z,96426.34
2023-02-02T10:47:29.912Z,96420.06
2023-02-02T10:50:08.312Z,96425.63
2023-02-02T10:52:35.140Z,96423.00
2023-02-02T10:55:14.306Z,96414.00
2023-02-02T10:58:08.781Z,96418.19
2023-02-02T11:00:46.449Z,96413.09
2023-02-02T11:03:15.625Z,96411.63
2023-02-02T11:05:42.250Z,96421.50
2023-02-02T11:08:13.503Z,96426.69
2023-02-02T11:10:40.649Z,96428.63
2023-02-02T11:13:07.957Z,96424.09
2023-02-02T11:15:34.497Z,96424.00
2023-02-02T11:18:33.678Z,96421.66
2023-02-02T11:21:00.521Z,96429.97
2023-02-02T11:23:28.049Z,96423.72
2023-02-02T11:25:59.975Z,96414.31
2023-02-02T11:28:27.886Z,96413.16
2023-02-02T11:30:54.450Z,96420.06
2023-02-02T11:33:35.428Z,96414.34
2023-02-02T11:36:06.217Z,96414.88
2023-02-02T11:38:33.117Z,96417.91
2023-02-02T11:41:07.772Z,96415.28
2023-02-02T11:43:36.553Z,96420.00
2023-02-02T11:46:14.011Z,96421.09
2023-02-02T11:48:50.622Z,96408.06
2023-02-02T11:51:25.109Z,96419.31
2023-02-02T11:54:04.047Z,96416.28
2023-02-02T11:56:30.993Z,96415.03
2023-02-02T11:58:58.205Z,96407.47
2023-02-02T12:01:24.812Z,96402.41
2023-02-02T12:03:52.706Z,96391.03
2023-02-02T12:06:25.141Z,96393.94
2023-02-02T12:09:00.868Z,96400.13
2023-02-02T12:11:45.913Z,96385.84
2023-02-02T12:14:42.117Z,96387.03
2023-02-02T12:17:23.463Z,96377.72
2023-02-02T12:20:11.846Z,96384.06
2023-02-02T12:22:56.828Z,96368.47
2023-02-02T12:25:45.175Z,96367.56
2023-02-02T12:28:28.741Z,96364.19
2023-02-02T12:31:22.399Z,96372.56
2023-02-02T12:34:04.846Z,96367.84
2023-02-02T12:36:50.560Z,96368.97
2023-02-02T12:39:32.493Z,96367.72
2023-02-02T12:42:04.923Z,96369.41
2023-02-02T12:44:59.318Z,96374.38
2023-02-02T12:47:43.774Z,96364.56
2023-02-02T12:50:35.148Z,96363.91
2023-02-02T12:53:04.601Z,96361.13
2023-02-02T12:55:49.882Z,96366.13
2023-02-02T12:58:17.695Z,96363.66
2023-02-02T13:01:11.320Z,96360.59
2023-02-02T13:03:43.494Z,96366.63
2023-02-02T13:06:42.003Z,96376.53
2023-02-02T13:09:26.858Z,96378.94
2023-02-02T13:11:57.747Z,96374.56
2023-02-02T13:14:28.667Z,96370.03
2023-02-02T13:17:00.122Z,96387.56
2023-02-02T13:19:38.879Z,96370.53
2023-02-02T13:22:08.063Z,96376.66
2023-02-02T13:24:36.955Z,96366.13
2023-02-02T13:27:06.191Z,96363.84
2023-02-02T13:29:57.931Z,96365.91
2023-02-02T13:32:39.991Z,96371.63
2023-02-02T13:35:16.673Z,96367.03
2023-02-02T13:38:01.462Z,96364.38
2023-02-02T13:40:35.125Z,96366.50
2023-02-02T13:43:07.159Z,96368.72
2023-02-02T13:46:01.055Z,96373.25
2023-02-02T13:48:32.856Z,96380.00
2023-02-02T13:51:09.533Z,96378.34
2023-02-02T13:53:51.992Z,96382.44
2023-02-02T13:56:40.031Z,96383.66
2023-02-02T13:59:16.048Z,96384.25
2023-02-02T14:01:46.855Z,96383.22
2023-02-02T14:04:26.298Z,96375.50
2023-02-02T14:06:59.315Z,96372.00
2023-02-02T14:09:28.695Z,96378.34
2023-02-02T14:11:58.330Z,96391.97
2023-02-02T14:14:25.305Z,96397.00
2023-02-02T14:16:52.317Z,96388.91
2023-02-02T14:19:41.555Z,96405.13
2023-02-02T14:22:11.448Z,96407.75
2023-02-02T14:24:42.498Z,96396.31
2023-02-02T14:27:09.089Z,96407.84
2023-02-02T14:29:46.962Z,96407.44
2023-02-02T14:32:25.847Z,96423.88
2023-02-02T14:34:55.307Z,96427.91
2023-02-02T14:37:25.104Z,96422.84
2023-02-02T14:40:06.740Z,96423.50
2023-02-02T14:43:03.771Z,96429.34
2023-02-02T14:45:38.129Z,96430.94
2023-02-02T14:48:07.561Z,96439.31
2023-02-02T14:50:39.975Z,96430.09
2023-02-02T14:53:13.169Z,96436.50
2023-02-02T14:56:15.424Z,96433.28
2023-02-02T14:58:45.840Z,96427.84
2023-02-02T15:01:23.249Z,96421.19
2023-02-02T15:03:55.279Z,96436.50
2023-02-02T15:06:37.188Z,96426.91
2023-02-02T15:09:22.027Z,96429.97
2023-02-02T15:12:01.741Z,96435.47
2023-02-02T15:14:34.180Z,96422.78
2023-02-02T15:17:10.063Z,96423.63
2023-02-02T15:19:40.907Z,96417.13
2023-02-02T15:22:44.078Z,96424.88
2023-02-02T15:25:41.777Z,96434.47
2023-02-02T15:28:38.152Z,96419.63
2023-02-02T15:31:16.703Z,96422.47
2023-02-02T15:33:45.507Z,96419.94
2023-02-02T15:36:24.985Z,96423.34
2023-02-02T15:38:53.816Z,96440.91
2023-02-02T15:41:30.055Z,96438.72
2023-02-02T15:43:56.502Z,96444.88
2023-02-02T15:46:29.724Z,96443.41
2023-02-02T15:49:34.894Z,96449.22
2023-02-02T15:52:11.723Z,96434.69
2023-02-02T15:54:38.318Z,96440.41
2023-02-02T15:57:32.626Z,96439.59
2023-02-02T16:00:00.929Z,96437.88
2023-02-02T16:02:41.754Z,96446.25
2023-02-02T16:05:36.320Z,96452.78
2023-02-02T16:08:07.194Z,96462.38
2023-02-02T16:10:34.493Z,96454.22
2023-02-02T16:13:01.636Z,96479.38
2023-02-02T16:15:30.285Z,96469.72
2023-02-02T16:18:05.973Z,96479.53
2023-02-02T16:20:34.509Z,96477.53
2023-02-02T16:23:02.590Z,96479.66
2023-02-02T16:25:34.810Z,96490.91
2023-02-02T16:28:01.468Z,96492.34
2023-02-02T16:30:31.413Z,96481.75
2023-02-02T16:32:58.071Z,96499.03
2023-02-02T16:35:35.764Z,96491.06
2023-02-02T16:38:15.380Z,96492.75
2023-02-02T16:40:42.041Z,96489.84
2023-02-02T16:43:20.475Z,96503.31
2023-02-02T16:45:50.526Z,96493.84
2023-02-02T16:48:26.110Z,96498.72
2023-02-02T16:51:17.638Z,96505.78
2023-02-02T16:53:58.982Z,96504.06
2023-02-02T16:56:33.828Z,96508.53
2023-02-02T16:59:04.485Z,96510.03
2023-02-02T17:01:36.968Z,96504.63
2023-02-02T17:04:07.491Z,96514.75
2023-02-02T17:06:50.185Z,96514.91
2023-02-02T17:09:31.915Z,96544.03
2023-02-02T17:12:03.893Z,96529.94
2023-02-02T17:14:33.807Z,96531.91
2023-02-02T17:17:06.131Z,96539.63
2023-02-02T17:19:32.693Z,96535.03
2023-02-02T17:22:01.387Z,96530.25
2023-02-02T17:24:28.356Z,96536.00
2023-02-02T17:26:54.929Z,96541.59
2023-02-02T17:29:22.737Z,96546.16
2023-02-02T17:31:49.303Z,96546.78
2023-02-02T17:34:16.182Z,96551.38
2023-02-02T17:36:43.360Z,96548.59
2023-02-02T17:39:11.669Z,96541.78
2023-02-02T17:41:38.766Z,96547.69
2023-02-02T17:44:05.679Z,96542.38
2023-02-02T17:46:32.863Z,96538.06
2023-02-02T17:48:59.645Z,96538.91
2023-02-02T17:51:27.023Z,96529.31
2023-02-02T17:53:53.965Z,96530.13
2023-02-02T17:56:20.538Z,96529.75
2023-02-02T17:58:47.398Z,96531.22
2023-02-02T18:01:13.969Z,96530.22
2023-02-02T18:03:41.543Z,96528.78
2023-02-02T18:06:09.884Z,96534.63
2023-02-02T18:08:36.499Z,96532.94
2023-02-02T18:11:05.809Z,96534.56
2023-02-02T18:13:32.936Z,96530.28
2023-02-02T18:16:07.932Z,96519.97
2023-02-02T18:18:35.489Z,96523.41
2023-02-02T18:21:01.994Z,96518.19
2023-02-02T18:23:28.786Z,96516.38
2023-02-02T18:25:55.485Z,96513.91
2023-02-02T18:28:22.057Z,96513.47
2023-02-02T18:30:48.649Z,96517.34
2023-02-02T18:33:16.034Z,96518.16
2023-02-02T18:35:45.317Z,96513.94
2023-02-02T18:38:11.856Z,96521.53
2023-02-02T18:40:38.880Z,96511.03
2023-02-02T18:43:05.524Z,96516.88
2023-02-02T18:45:32.077Z,96512.47
2023-02-02T18:47:58.622Z,96506.41
2023-02-02T18:50:25.224Z,96512.94
2023-02-02T18:52:51.773Z,96517.78
2023-02-02T18:55:18.266Z,96514.91
2023-02-02T18:57:44.830Z,96519.69
2023-02-02T19:00:11.947Z,96516.72
2023-02-02T19:02:38.678Z,96522.75
2023-02-02T19:05:05.308Z,96525.03
2023-02-02T19:07:32.367Z,96521.34
2023-02-02T19:09:58.934Z,96521.91
2023-02-02T19:12:25.821Z,96523.94
2023-02-02T19:14:52.364Z,96525.16
2023-02-02T19:17:23.232Z,96524.34
2023-02-02T19:19:50.301Z,96527.41
2023-02-02T19:22:22.386Z,96534.97
2023-02-02T19:24:49.408Z,96529.81
2023-02-02T19:27:19.840Z,96533.72
2023-02-02T19:29:46.719Z,96542.03
2023-02-02T19:32:19.174Z,96532.13
2023-02-02T19:34:46.594Z,96525.94
2023-02-02T19:37:23.903Z,96536.94
2023-02-02T19:39:53.661Z,96532.59
2023-02-02T19:42:20.153Z,96533.38
2023-02-02T19:44:46.778Z,96535.22
2023-02-02T19:47:30.118Z,96558.59
2023-02-02T19:49:56.703Z,96544.13
2023-02-02T19:52:24.568Z,96550.28
2023-02-02T19:54:52.277Z,96549.63
2023-02-02T19:57:37.206Z,96553.06
2023-02-02T20:00:18.052Z,96550.34
2023-02-02T20:03:00.831Z,96549.91
2023-02-02T20:05:34.060Z,96539.88
2023-02-02T20:08:05.665Z,96547.38
2023-02-02T20:10:42.632Z,96551.44
2023-02-02T20:13:18.099Z,96557.25
2023-02-02T20:15:44.669Z,96542.06
2023-02-02T20:18:19.039Z,96545.59
2023-02-02T20:20:49.198Z,96547.00
2023-02-02T20:23:44.286Z,96542.88
2023-02-02T20:26:20.823Z,96531.63
2023-02-02T20:28:48.089Z,96536.19
2023-02-02T20:31:17.986Z,96533.38
2023-02-02T20:33:47.304Z,96540.94
2023-02-02T20:36:53.102Z,96536.06
2023-02-02T20:39:27.497Z,96510.66
2023-02-02T20:41:54.986Z,96532.69
2023-02-02T20:44:21.688Z,96530.06
2023-02-02T20:46:48.185Z,96514.00
2023-02-02T20:49:14.763Z,96516.13
2023-02-02T20:51:41.326Z,96518.16
2023-02-02T20:54:09.181Z,96522.22
2023-02-02T20:56:35.685Z,96523.97
2023-02-02T20:59:02.412Z,96520.78
2023-02-02T21:01:28.926Z,96530.28
2023-02-02T21:03:55.561Z,96532.94
2023-02-02T21:06:24.539Z,96533.88
2023-02-02T21:08:51.362Z,96538.53
2023-02-02T21:11:19.780Z,96538.38
2023-02-02T21:13:46.520Z,96524.53
2023-02-02T21:16:13.230Z,96528.50
2023-02-02T21:18:39.952Z,96536.28
2023-02-02T21:21:06.495Z,96534.19
2023-02-02T21:23:33.071Z,96534.25
2023-02-02T21:25:59.647Z,96536.59
2023-02-02T21:28:26.192Z,96539.28
2023-02-02T21:30:52.842Z,96543.06
2023-02-02T21:33:19.352Z,96543.47
2023-02-02T21:35:45.922Z,96544.34
2023-02-02T21:38:15.903Z,96540.00
2023-02-02T21:40:42.382Z,96541.41
2023-02-02T21:43:14.847Z,96540.75
2023-02-02T21:45:42.382Z,96545.03
2023-02-02T21:48:29.921Z,96548.66
2023-02-02T21:50:56.570Z,96549.16
2023-02-02T21:53:24.691Z,96554.56
2023-02-02T21:55:59.528Z,96553.81
2023-02-02T21:58:28.846Z,96557.53
2023-02-02T22:00:58.654Z,96555.28
2023-02-02T22:03:29.899Z,96563.59
2023-02-02T22:06:20.506Z,96572.75
2023-02-02T22:08:47.332Z,96572.38
2023-02-02T22:11:28.945Z,96582.72
2023-02-02T22:14:13.662Z,96587.94
2023-02-02T22:16:45.348Z,96588.59
2023-02-02T22:19:25.139Z,96582.84
2023-02-02T22:21:52.026Z,96586.25
2023-02-02T22:24:18.538Z,96575.69
2023-02-02T22:26:46.272Z,96585.19
2023-02-02T22:29:17.754Z,96591.16
2023-02-02T22:31:44.288Z,96585.53
2023-02-02T22:34:10.912Z,96590.69
2023-02-02T22:36:37.364Z,96590.41
2023-02-02T22:39:03.862Z,96593.63
2023-02-02T22:41:30.397Z,96585.66
2023-02-02T22:43:57.022Z,96589.78
2023-02-02T22:46:23.770Z,96594.22
2023-02-02T22:48:50.261Z,96593.63
2023-02-02T22:51:16.937Z,96600.72
2023-02-02T22:53:43.482Z,96601.13
2023-02-02T22:56:10.031Z,96602.31
2023-02-02T22:58:39.007Z,96607.34
